Terminal Aerodrome Forecast
Issued by NWS

Home | Current Version | Previous Version | Text Only | Print | Product List | Glossary Off
Versions: 1 2 3 4 5 6 7 8 9 10 11 12 13 14

592
FTUS43 KMPX 292338
TAFAXN
TAF
KAXN 292338Z 3000/3024 15010KT P6SM OVC150
     FM300200 15009KT P6SM SCT030 OVC050
     FM300800 09008KT P6SM OVC025
     FM301800 10010KT P6SM BKN035=

USA.gov is the U.S. government's official web portal to all federal, state and local government web resources and services.